createdAt,value
2018-09-27T00:00:24.790Z,10.30
2018-09-27T00:01:24.779Z,10.34
2018-09-27T00:02:24.799Z,10.31
2018-09-27T00:03:24.751Z,10.35
2018-09-27T00:04:24.738Z,10.33
2018-09-27T00:05:24.728Z,10.26
2018-09-27T00:06:24.729Z,10.30
2018-09-27T00:07:24.749Z,10.30
2018-09-27T00:08:24.698Z,10.28
2018-09-27T00:09:24.706Z,10.23
2018-09-27T00:10:24.702Z,10.23
2018-09-27T00:11:24.663Z,10.26
2018-09-27T00:12:24.757Z,10.13
2018-09-27T00:13:24.646Z,10.09
2018-09-27T00:14:24.638Z,10.13
2018-09-27T00:15:24.650Z,10.12
2018-09-27T00:16:24.639Z,10.12
2018-09-27T00:17:24.607Z,10.10
2018-09-27T00:18:24.581Z,10.09
2018-09-27T00:19:24.605Z,10.01
2018-09-27T00:20:24.564Z,10.01
2018-09-27T00:21:24.577Z,10.02
2018-09-27T00:22:24.540Z,10.05
2018-09-27T00:23:24.531Z,10.01
2018-09-27T00:24:24.522Z,9.99
2018-09-27T00:25:24.506Z,9.98
2018-09-27T00:26:24.520Z,9.97
2018-09-27T00:27:24.489Z,10.01
2018-09-27T00:28:24.471Z,9.92
2018-09-27T00:29:24.465Z,9.95
2018-09-27T00:30:24.447Z,9.95
2018-09-27T00:31:24.483Z,9.92
2018-09-27T00:32:24.429Z,9.91
2018-09-27T00:33:24.413Z,9.94
2018-09-27T00:34:24.409Z,9.92
2018-09-27T00:35:24.403Z,9.83
2018-09-27T00:36:24.432Z,9.89
2018-09-27T00:37:24.369Z,9.86
2018-09-27T00:38:24.388Z,9.74
2018-09-27T00:39:24.373Z,9.72
2018-09-27T00:40:24.400Z,9.69
2018-09-27T00:41:24.326Z,9.69
2018-09-27T00:42:24.372Z,9.83
2018-09-27T00:43:24.305Z,9.69
2018-09-27T00:44:24.290Z,9.76
2018-09-27T00:45:24.288Z,9.74
2018-09-27T00:46:24.266Z,9.72
2018-09-27T00:47:24.295Z,9.68
2018-09-27T00:48:24.247Z,9.73
2018-09-27T00:49:24.237Z,9.74
2018-09-27T00:50:24.236Z,9.77
2018-09-27T00:51:24.247Z,9.66
2018-09-27T00:52:24.228Z,9.66
2018-09-27T00:53:24.190Z,9.74
2018-09-27T00:54:24.180Z,9.73
2018-09-27T00:55:24.174Z,9.72
2018-09-27T00:56:24.192Z,9.66
2018-09-27T00:57:24.147Z,9.65
2018-09-27T00:58:24.137Z,9.62
2018-09-27T00:59:24.122Z,9.65
2018-09-27T01:00:24.119Z,9.61
2018-09-27T01:01:24.134Z,9.65
2018-09-27T01:02:24.093Z,9.59
2018-09-27T01:03:24.081Z,9.61
2018-09-27T01:04:24.064Z,9.59
2018-09-27T01:05:24.085Z,9.62
2018-09-27T01:06:24.046Z,9.68
2018-09-27T01:07:24.035Z,9.64
2018-09-27T01:08:24.026Z,9.66
2018-09-27T01:09:24.046Z,9.59
2018-09-27T01:10:24.000Z,9.73
2018-09-27T01:11:24.031Z,9.61
2018-09-27T01:12:23.984Z,9.68
2018-09-27T01:13:24.015Z,9.62
2018-09-27T01:14:23.956Z,9.62
2018-09-27T01:15:23.941Z,9.66
2018-09-27T01:16:23.926Z,9.58
2018-09-27T01:17:23.932Z,9.62
2018-09-27T01:18:23.947Z,9.62
2018-09-27T01:19:23.900Z,9.59
2018-09-27T01:20:23.892Z,9.61
2018-09-27T01:21:23.870Z,9.59
2018-09-27T01:22:23.866Z,9.65
2018-09-27T01:23:23.886Z,9.59
2018-09-27T01:24:23.842Z,9.62
2018-09-27T01:25:23.864Z,9.56
2018-09-27T01:26:23.821Z,9.59
2018-09-27T01:27:23.923Z,9.58
2018-09-27T01:28:23.797Z,9.61
2018-09-27T01:29:23.811Z,9.62
2018-09-27T01:30:23.818Z,9.61
2018-09-27T01:31:23.761Z,9.61
2018-09-27T01:32:31.085Z,9.58
2018-09-27T01:33:23.737Z,9.62
2018-09-27T01:34:23.729Z,9.58
2018-09-27T01:35:23.761Z,9.61
2018-09-27T01:36:23.702Z,9.61
2018-09-27T01:37:23.692Z,9.61
2018-09-27T01:38:23.683Z,9.51
2018-09-27T01:39:23.700Z,9.51
2018-09-27T01:40:23.657Z,9.54
2018-09-27T01:42:32.430Z,9.51
2018-09-27T01:43:32.414Z,9.54
2018-09-27T01:44:32.376Z,9.51
2018-09-27T01:45:32.362Z,9.46
2018-09-27T01:46:32.360Z,9.37
2018-09-27T01:47:32.351Z,9.41
2018-09-27T01:48:32.374Z,9.48
2018-09-27T01:49:32.323Z,9.43
2018-09-27T01:50:32.328Z,9.40
2018-09-27T01:51:32.294Z,9.39
2018-09-27T01:52:32.321Z,9.26
2018-09-27T01:53:32.275Z,9.34
2018-09-27T01:54:32.263Z,9.32
2018-09-27T01:55:32.252Z,9.34
2018-09-27T01:56:32.238Z,9.29
2018-09-27T01:57:32.260Z,9.34
2018-09-27T01:58:32.218Z,9.32
2018-09-27T01:59:32.212Z,9.36
2018-09-27T02:00:32.201Z,9.29
2018-09-27T02:01:32.221Z,9.34
2018-09-27T02:02:32.192Z,9.32
2018-09-27T02:03:32.161Z,9.29
2018-09-27T02:04:32.151Z,9.26
2018-09-27T02:05:32.145Z,9.34
2018-09-27T02:06:32.308Z,9.31
2018-09-27T02:07:32.203Z,9.28
2018-09-27T02:08:32.186Z,9.39
2018-09-27T02:09:32.186Z,9.26
2018-09-27T02:10:32.171Z,9.34
2018-09-27T02:11:32.289Z,9.28
2018-09-27T02:12:32.062Z,9.23
2018-09-27T02:13:32.052Z,9.22
2018-09-27T02:14:32.071Z,9.22
2018-09-27T02:15:32.028Z,9.18
2018-09-27T02:16:32.042Z,9.10
2018-09-27T02:17:32.049Z,9.03
2018-09-27T02:18:32.041Z,9.13
2018-09-27T02:19:31.985Z,9.13
2018-09-27T02:20:31.972Z,9.13
2018-09-27T02:21:31.960Z,9.11
2018-09-27T02:22:32.154Z,9.16
2018-09-27T02:23:31.938Z,9.08
2018-09-27T02:24:31.927Z,9.06
2018-09-27T02:25:31.914Z,9.06
2018-09-27T02:26:31.946Z,9.06
2018-09-27T02:27:31.921Z,8.97
2018-09-27T02:28:31.920Z,9.04
2018-09-27T02:29:31.868Z,9.00
2018-09-27T02:30:31.862Z,9.13
2018-09-27T02:31:31.882Z,9.11
2018-09-27T02:32:31.837Z,9.08
2018-09-27T02:33:31.873Z,8.99
2018-09-27T02:34:31.818Z,8.97
2018-09-27T02:35:31.807Z,8.99
2018-09-27T02:36:31.830Z,8.92
2018-09-27T02:37:31.783Z,9.00
2018-09-27T02:38:31.773Z,9.02
2018-09-27T02:39:31.825Z,9.02
2018-09-27T02:40:31.750Z,9.02
2018-09-27T02:41:31.738Z,8.95
2018-09-27T02:42:31.728Z,8.95
2018-09-27T02:43:31.743Z,8.87
2018-09-27T02:44:31.712Z,8.89
2018-09-27T02:45:31.690Z,9.00
2018-09-27T02:46:31.717Z,9.00
2018-09-27T02:47:31.668Z,9.03
2018-09-27T02:48:31.697Z,9.00
2018-09-27T02:49:31.688Z,8.82
2018-09-27T02:50:31.666Z,8.85
2018-09-27T02:51:31.625Z,8.94
2018-09-27T02:52:31.615Z,8.91
2018-09-27T02:53:31.605Z,8.91
2018-09-27T02:54:31.629Z,8.89
2018-09-27T02:55:31.584Z,8.87
2018-09-27T02:56:31.573Z,8.85
2018-09-27T02:57:31.559Z,8.82
2018-09-27T02:58:31.658Z,8.85
2018-09-27T02:59:31.565Z,8.88
2018-09-27T03:00:31.564Z,8.91
2018-09-27T03:01:31.586Z,8.87
2018-09-27T03:02:31.506Z,8.84
2018-09-27T03:03:31.495Z,8.85
2018-09-27T03:04:31.492Z,8.91
2018-09-27T03:05:31.505Z,8.87
2018-09-27T03:06:31.464Z,8.88
2018-09-27T03:07:31.451Z,8.84
2018-09-27T03:08:31.439Z,8.87
2018-09-27T03:09:31.422Z,8.95
2018-09-27T03:10:31.469Z,8.91
2018-09-27T03:11:31.408Z,8.87
2018-09-27T03:12:31.389Z,8.85
2018-09-27T03:13:31.380Z,8.94
2018-09-27T03:14:31.374Z,8.81
2018-09-27T03:15:31.401Z,8.84
2018-09-27T03:16:31.344Z,8.91
2018-09-27T03:17:31.343Z,8.84
2018-09-27T03:18:31.335Z,8.81
2018-09-27T03:19:31.315Z,8.95
2018-09-27T03:20:31.363Z,8.82
2018-09-27T03:21:31.326Z,8.76
2018-09-27T03:22:31.283Z,8.92
2018-09-27T03:23:31.271Z,8.91
2018-09-27T03:24:31.258Z,8.84
2018-09-27T03:25:31.338Z,8.84
2018-09-27T03:26:31.241Z,8.82
2018-09-27T03:27:31.227Z,8.82
2018-09-27T03:28:31.217Z,8.81
2018-09-27T03:29:31.205Z,8.73
2018-09-27T03:30:31.221Z,8.64
2018-09-27T03:31:31.185Z,8.66
2018-09-27T03:32:31.201Z,8.69
2018-09-27T03:33:31.156Z,8.70
2018-09-27T03:34:31.181Z,8.67
2018-09-27T03:35:31.218Z,8.69
2018-09-27T03:36:31.162Z,8.69
2018-09-27T03:37:31.113Z,8.64
2018-09-27T03:38:31.102Z,8.66
2018-09-27T03:39:31.090Z,8.66
2018-09-27T03:40:31.130Z,8.70
2018-09-27T03:41:31.169Z,8.70
2018-09-27T03:42:31.055Z,8.60
2018-09-27T03:43:31.086Z,8.56
2018-09-27T03:44:31.033Z,8.63
2018-09-27T03:45:31.057Z,8.63
2018-09-27T03:46:31.014Z,8.56
2018-09-27T03:47:31.014Z,8.63
2018-09-27T03:48:30.988Z,8.69
2018-09-27T03:49:30.981Z,8.60
2018-09-27T03:50:31.003Z,8.64
2018-09-27T03:51:30.972Z,8.66
2018-09-27T03:52:30.947Z,8.67
2018-09-27T03:53:30.974Z,8.63
2018-09-27T03:54:30.925Z,8.63
2018-09-27T03:55:30.908Z,8.60
2018-09-27T03:56:30.903Z,8.64
2018-09-27T03:57:30.891Z,8.67
2018-09-27T03:58:30.910Z,8.63
2018-09-27T03:59:30.869Z,8.67
2018-09-27T04:00:30.894Z,8.70
2018-09-27T04:01:30.849Z,8.64
2018-09-27T04:02:30.833Z,8.67
2018-09-27T04:03:30.824Z,8.69
2018-09-27T04:04:30.812Z,8.69
2018-09-27T04:05:30.830Z,8.64
2018-09-27T04:06:30.807Z,8.66
2018-09-27T04:07:30.782Z,8.64
2018-09-27T04:08:30.766Z,8.69
2018-09-27T04:09:30.793Z,8.67
2018-09-27T04:10:30.747Z,8.66
2018-09-27T04:11:30.780Z,8.69
2018-09-27T04:12:30.724Z,8.60
2018-09-27T04:13:30.711Z,8.60
2018-09-27T04:14:30.728Z,8.63
2018-09-27T04:15:30.683Z,8.56
2018-09-27T04:16:30.690Z,8.53
2018-09-27T04:17:30.666Z,8.46
2018-09-27T04:18:30.659Z,8.49
2018-09-27T04:19:30.671Z,8.48
2018-09-27T04:20:30.633Z,8.53
2018-09-27T04:21:30.617Z,8.48
2018-09-27T04:22:30.611Z,8.38
2018-09-27T04:23:30.599Z,8.46
2018-09-27T04:24:30.629Z,8.42
2018-09-27T04:25:30.581Z,8.51
2018-09-27T04:26:30.564Z,8.38
2018-09-27T04:27:30.640Z,8.44
2018-09-27T04:28:30.546Z,8.48
2018-09-27T04:29:30.566Z,8.48
2018-09-27T04:30:30.522Z,8.48
2018-09-27T04:31:30.517Z,8.37
2018-09-27T04:32:30.497Z,8.44
2018-09-27T04:33:30.525Z,8.48
2018-09-27T04:34:30.499Z,8.44
2018-09-27T04:35:30.471Z,8.44
2018-09-27T04:36:30.455Z,8.51
2018-09-27T04:37:30.498Z,8.38
2018-09-27T04:38:30.438Z,8.41
2018-09-27T04:39:30.418Z,8.45
2018-09-27T04:40:30.414Z,8.42
2018-09-27T04:41:30.397Z,8.37
2018-09-27T04:42:30.422Z,8.38
2018-09-27T04:43:30.378Z,8.44
2018-09-27T04:44:30.364Z,8.38
2018-09-27T04:45:30.358Z,8.30
2018-09-27T04:46:30.396Z,8.36
2018-09-27T04:47:30.341Z,8.31
2018-09-27T04:48:30.324Z,8.30
2018-09-27T04:49:30.310Z,8.30
2018-09-27T04:50:30.303Z,8.31
2018-09-27T04:51:30.371Z,8.31
2018-09-27T04:52:30.285Z,8.33
2018-09-27T04:53:30.266Z,8.24
2018-09-27T04:54:30.279Z,8.26
2018-09-27T04:55:30.282Z,8.33
2018-09-27T04:56:30.227Z,8.28
2018-09-27T04:57:30.220Z,8.27
2018-09-27T04:58:30.237Z,8.26
2018-09-27T04:59:30.227Z,8.31
2018-09-27T05:00:30.190Z,8.23
2018-09-27T05:01:30.181Z,8.28
2018-09-27T05:02:30.169Z,8.26
2018-09-27T05:03:30.164Z,8.33
2018-09-27T05:04:30.178Z,8.30
2018-09-27T05:05:30.140Z,8.27
2018-09-27T05:06:30.127Z,8.28
2018-09-27T05:07:30.125Z,8.30
2018-09-27T05:08:30.104Z,8.24
2018-09-27T05:09:30.132Z,8.30
2018-09-27T05:10:30.074Z,8.41
2018-09-27T05:11:30.068Z,8.44
2018-09-27T05:12:30.053Z,8.44
2018-09-27T05:13:30.076Z,8.42
2018-09-27T05:14:30.032Z,8.41
2018-09-27T05:15:30.116Z,8.42
2018-09-27T05:16:30.045Z,8.44
2018-09-27T05:17:30.005Z,8.30
2018-09-27T05:18:29.987Z,8.31
2018-09-27T05:19:30.009Z,8.44
2018-09-27T05:20:30.002Z,8.42
2018-09-27T05:21:29.998Z,8.44
2018-09-27T05:22:29.939Z,8.37
2018-09-27T05:23:29.989Z,8.42
2018-09-27T05:24:29.947Z,8.38
2018-09-27T05:25:29.915Z,8.42
2018-09-27T05:26:30.026Z,8.44
2018-09-27T05:27:29.913Z,8.42
2018-09-27T05:28:29.877Z,8.41
2018-09-27T05:29:29.876Z,8.31
2018-09-27T05:30:29.856Z,8.31
2018-09-27T05:31:29.878Z,8.36
2018-09-27T05:32:29.835Z,8.23
2018-09-27T05:33:29.892Z,8.31
2018-09-27T05:34:29.861Z,8.34
2018-09-27T05:35:29.802Z,8.44
2018-09-27T05:36:29.789Z,8.44
2018-09-27T05:37:29.784Z,8.46
2018-09-27T05:38:29.770Z,8.56
2018-09-27T05:39:29.878Z,8.56
2018-09-27T05:40:29.746Z,8.61
2018-09-27T05:41:29.733Z,8.60
2018-09-27T05:42:29.767Z,8.58
2018-09-27T05:43:29.710Z,8.60
2018-09-27T05:44:29.707Z,8.61
2018-09-27T05:45:29.697Z,8.63
2018-09-27T05:46:29.679Z,8.63
2018-09-27T05:47:29.720Z,8.61
2018-09-27T05:48:29.656Z,8.63
2018-09-27T05:49:29.643Z,8.58
2018-09-27T05:50:29.668Z,8.60
2018-09-27T05:51:29.678Z,8.63
2018-09-27T05:52:29.640Z,8.67
2018-09-27T05:53:29.596Z,8.66
2018-09-27T05:54:29.589Z,8.73
2018-09-27T05:55:29.579Z,8.67
2018-09-27T05:56:29.602Z,8.71
2018-09-27T05:57:29.641Z,8.74
2018-09-27T05:58:29.548Z,8.82
2018-09-27T05:59:29.540Z,8.85
2018-09-27T06:00:29.541Z,8.87
2018-09-27T06:01:29.579Z,8.82
2018-09-27T06:02:29.539Z,8.85
2018-09-27T06:03:29.570Z,8.88
2018-09-27T06:04:29.481Z,8.89
2018-09-27T06:05:29.468Z,8.85
2018-09-27T06:06:29.559Z,8.92
2018-09-27T06:07:29.446Z,8.88
2018-09-27T06:08:29.473Z,8.91
2018-09-27T06:09:29.499Z,8.91
2018-09-27T06:10:29.406Z,8.88
2018-09-27T06:11:29.445Z,8.89
2018-09-27T06:12:29.392Z,8.84
2018-09-27T06:13:29.420Z,8.87
2018-09-27T06:14:29.367Z,8.89
2018-09-27T06:15:29.416Z,8.88
2018-09-27T06:16:29.340Z,8.92
2018-09-27T06:17:29.333Z,9.14
2018-09-27T06:18:29.357Z,9.03
2018-09-27T06:19:29.344Z,9.25
2018-09-27T06:20:29.299Z,9.19
2018-09-27T06:21:29.311Z,9.11
2018-09-27T06:22:29.300Z,9.19
2018-09-27T06:23:29.264Z,9.21
2018-09-27T06:24:29.259Z,9.23
2018-09-27T06:25:29.248Z,9.25
2018-09-27T06:26:29.286Z,9.37
2018-09-27T06:27:29.294Z,9.28
2018-09-27T06:28:29.222Z,9.34
2018-09-27T06:29:29.246Z,9.32
2018-09-27T06:30:29.250Z,9.32
2018-09-27T06:31:29.175Z,9.34
2018-09-27T06:32:29.169Z,9.39
2018-09-27T06:33:29.211Z,9.40
2018-09-27T06:34:29.148Z,9.40
2018-09-27T06:35:29.132Z,9.40
2018-09-27T06:36:29.153Z,9.46
2018-09-27T06:37:29.108Z,9.48
2018-09-27T06:38:29.134Z,9.58
2018-09-27T06:39:29.115Z,9.55
2018-09-27T06:40:29.074Z,9.50
2018-09-27T06:41:29.134Z,9.61
2018-09-27T06:42:29.052Z,9.61
2018-09-27T06:43:29.063Z,9.61
2018-09-27T06:44:29.040Z,9.59
2018-09-27T06:45:29.016Z,9.72
2018-09-27T06:46:29.137Z,9.72
2018-09-27T06:47:28.998Z,9.73
2018-09-27T06:48:29.043Z,9.82
2018-09-27T06:49:28.980Z,9.92
2018-09-27T06:50:29.019Z,9.92
2018-09-27T06:51:28.959Z,9.99
2018-09-27T06:52:28.945Z,10.01
2018-09-27T06:53:28.977Z,10.12
2018-09-27T06:54:28.923Z,10.13
2018-09-27T06:55:29.073Z,10.15
2018-09-27T06:56:28.919Z,10.17
2018-09-27T06:57:28.884Z,10.23
2018-09-27T06:58:28.924Z,10.37
2018-09-27T06:59:28.880Z,10.38
2018-09-27T07:00:28.852Z,10.40
2018-09-27T07:01:28.841Z,10.38
2018-09-27T07:02:28.857Z,10.53
2018-09-27T07:03:28.863Z,10.49
2018-09-27T07:04:28.804Z,10.44
2018-09-27T07:05:28.800Z,10.63
2018-09-27T07:06:28.812Z,10.64
2018-09-27T07:07:28.768Z,10.63
2018-09-27T07:08:28.788Z,10.71
2018-09-27T07:09:28.757Z,10.68
2018-09-27T07:10:28.803Z,10.71
2018-09-27T07:11:28.772Z,10.74
2018-09-27T07:12:28.872Z,10.81
2018-09-27T07:13:28.706Z,10.86
2018-09-27T07:14:28.713Z,10.86
2018-09-27T07:15:28.701Z,11.02
2018-09-27T07:16:28.710Z,11.02
2018-09-27T07:17:28.660Z,11.08
2018-09-27T07:18:28.649Z,11.11
2018-09-27T07:19:28.680Z,11.19
2018-09-27T07:20:28.633Z,11.23
2018-09-27T07:21:28.638Z,11.30
2018-09-27T07:22:28.619Z,11.37
2018-09-27T07:23:28.593Z,11.43
2018-09-27T07:24:28.580Z,11.43
2018-09-27T07:25:28.609Z,11.57
2018-09-27T07:26:28.712Z,11.59
2018-09-27T07:27:28.561Z,11.62
2018-09-27T07:28:28.539Z,11.68
2018-09-27T07:29:28.550Z,11.70
2018-09-27T07:30:28.512Z,11.75
2018-09-27T07:31:28.504Z,11.77
2018-09-27T07:32:28.577Z,11.88
2018-09-27T07:33:28.490Z,11.90
2018-09-27T07:34:28.507Z,11.99
2018-09-27T07:35:28.467Z,11.88
2018-09-27T07:36:28.460Z,12.09
2018-09-27T07:37:28.474Z,12.09
2018-09-27T07:38:28.452Z,12.13
2018-09-27T07:39:28.415Z,12.12
2018-09-27T07:40:28.413Z,12.18
2018-09-27T07:41:28.387Z,12.25
2018-09-27T07:43:37.609Z,12.43
2018-09-27T07:44:37.612Z,12.40
2018-09-27T07:45:37.597Z,12.45
2018-09-27T07:46:37.552Z,12.50
2018-09-27T07:47:37.548Z,12.53
2018-09-27T07:48:37.631Z,12.55
2018-09-27T07:49:37.513Z,12.54
2018-09-27T07:50:37.570Z,12.72
2018-09-27T07:51:37.524Z,12.68
2018-09-27T07:52:37.480Z,12.65
2018-09-27T07:53:37.510Z,12.79
2018-09-27T07:54:37.629Z,12.80
2018-09-27T07:55:37.447Z,12.83
2018-09-27T07:56:37.450Z,12.90
2018-09-27T07:57:37.510Z,13.01
2018-09-27T07:58:37.459Z,12.95
2018-09-27T07:59:37.404Z,13.11
2018-09-27T08:00:37.395Z,13.01
2018-09-27T08:01:37.382Z,13.19
2018-09-27T08:02:37.440Z,13.15
2018-09-27T08:03:37.417Z,13.11
2018-09-27T08:04:37.352Z,13.11
2018-09-27T08:05:37.340Z,13.18
2018-09-27T08:06:37.325Z,13.27
2018-09-27T08:07:37.313Z,13.28
2018-09-27T08:08:37.351Z,13.27
2018-09-27T08:09:37.296Z,13.37
2018-09-27T08:10:37.278Z,13.28
2018-09-27T08:11:37.330Z,13.46
2018-09-27T08:12:37.281Z,13.47
2018-09-27T08:13:37.251Z,13.49
2018-09-27T08:14:37.341Z,13.54
2018-09-27T08:15:37.238Z,13.53
2018-09-27T08:16:37.245Z,13.52
2018-09-27T08:17:37.249Z,13.53
2018-09-27T08:18:37.191Z,13.56
2018-09-27T08:19:37.185Z,13.67
2018-09-27T08:20:37.305Z,13.77
2018-09-27T08:21:37.168Z,13.75
2018-09-27T08:22:37.182Z,13.74
2018-09-27T08:23:37.134Z,13.81
2018-09-27T08:24:37.152Z,13.85
2018-09-27T08:25:37.120Z,13.77
2018-09-27T08:26:37.145Z,13.87
2018-09-27T08:27:37.097Z,13.86
2018-09-27T08:28:37.085Z,13.95
2018-09-27T08:29:37.111Z,13.90
2018-09-27T08:30:37.117Z,14.03
2018-09-27T08:31:37.050Z,14.05
2018-09-27T08:32:37.063Z,14.12
2018-09-27T08:33:37.030Z,14.11
2018-09-27T08:34:37.159Z,14.15
2018-09-27T08:35:37.005Z,14.23
2018-09-27T08:36:37.018Z,14.20
2018-09-27T08:37:37.063Z,14.29
2018-09-27T08:38:37.096Z,14.29
2018-09-27T08:39:36.978Z,14.35
2018-09-27T08:40:36.947Z,14.35
2018-09-27T08:41:36.944Z,14.41
2018-09-27T08:42:36.971Z,14.41
2018-09-27T08:43:36.957Z,14.40
2018-09-27T08:44:36.963Z,14.48
2018-09-27T08:45:36.977Z,14.45
2018-09-27T08:46:36.895Z,14.53
2018-09-27T08:47:36.869Z,14.59
2018-09-27T08:48:36.862Z,14.60
2018-09-27T08:49:36.893Z,14.53
2018-09-27T08:50:36.841Z,14.69
2018-09-27T08:51:36.857Z,14.62
2018-09-27T08:52:36.819Z,14.65
2018-09-27T08:53:36.879Z,14.78
2018-09-27T08:54:36.847Z,14.88
2018-09-27T08:55:36.869Z,14.85
2018-09-27T08:56:36.778Z,14.89
2018-09-27T08:57:36.778Z,14.82
2018-09-27T08:58:36.762Z,14.88
2018-09-27T08:59:36.788Z,14.89
2018-09-27T09:00:36.728Z,15.04
2018-09-27T09:01:36.802Z,15.09
2018-09-27T09:02:36.719Z,15.03
2018-09-27T09:03:36.816Z,15.06
2018-09-27T09:04:36.696Z,15.19
2018-09-27T09:05:36.718Z,15.17
2018-09-27T09:06:36.664Z,15.18
2018-09-27T09:07:36.772Z,15.27
2018-09-27T09:08:36.643Z,15.31
2018-09-27T09:09:36.664Z,15.24
2018-09-27T09:10:36.667Z,15.31
2018-09-27T09:11:36.616Z,15.33
2018-09-27T09:12:36.595Z,15.44
2018-09-27T09:13:36.669Z,15.39
2018-09-27T09:14:36.571Z,15.52
2018-09-27T09:15:36.610Z,15.49
2018-09-27T09:16:36.557Z,15.58
2018-09-27T09:17:36.545Z,15.58
2018-09-27T09:18:36.529Z,15.62
2018-09-27T09:19:36.616Z,15.64
2018-09-27T09:20:36.573Z,15.68
2018-09-27T09:21:36.602Z,15.70
2018-09-27T09:22:36.479Z,15.77
2018-09-27T09:23:36.481Z,15.82
2018-09-27T09:24:36.540Z,15.83
2018-09-27T09:25:36.456Z,15.90
2018-09-27T09:26:36.509Z,15.97
2018-09-27T09:27:36.470Z,16.02
2018-09-27T09:28:36.480Z,16.08
2018-09-27T09:29:36.511Z,16.15
2018-09-27T09:30:36.426Z,16.16
2018-09-27T09:31:36.377Z,16.21
2018-09-27T09:32:36.370Z,16.20
2018-09-27T09:33:36.394Z,16.20
2018-09-27T09:34:36.350Z,16.26
2018-09-27T09:35:36.445Z,16.35
2018-09-27T09:36:36.329Z,16.32
2018-09-27T09:37:36.313Z,16.42
2018-09-27T09:38:36.314Z,16.46
2018-09-27T09:39:36.325Z,16.50
2018-09-27T09:40:36.283Z,16.50
2018-09-27T09:41:36.315Z,16.54
2018-09-27T09:42:36.259Z,16.58
2018-09-27T09:43:36.247Z,16.54
2018-09-27T09:44:36.235Z,16.69
2018-09-27T09:45:36.224Z,16.64
2018-09-27T09:46:36.249Z,16.76
2018-09-27T09:47:36.216Z,16.72
2018-09-27T09:48:36.193Z,16.69
2018-09-27T09:49:36.181Z,16.86
2018-09-27T09:50:36.172Z,16.83
2018-09-27T09:51:36.207Z,16.91
2018-09-27T09:52:36.149Z,16.94
2018-09-27T09:53:36.137Z,16.99
2018-09-27T09:54:36.199Z,16.99
2018-09-27T09:55:36.117Z,17.05
2018-09-27T09:56:36.150Z,17.12
2018-09-27T09:57:36.120Z,17.09
2018-09-27T09:58:36.096Z,17.22
2018-09-27T09:59:36.114Z,17.23
2018-09-27T10:00:36.064Z,17.27
2018-09-27T10:01:36.055Z,17.23
2018-09-27T10:02:36.320Z,17.30
2018-09-27T10:03:36.063Z,17.41
2018-09-27T10:04:36.021Z,17.38
2018-09-27T10:05:36.006Z,17.45
2018-09-27T10:06:35.996Z,17.41
2018-09-27T10:07:36.027Z,17.39
2018-09-27T10:08:36.003Z,17.48
2018-09-27T10:09:36.022Z,17.54
2018-09-27T10:10:35.953Z,17.64
2018-09-27T10:11:35.941Z,17.64
2018-09-27T10:12:35.925Z,17.67
2018-09-27T10:13:35.928Z,17.65
2018-09-27T10:14:35.951Z,17.72
2018-09-27T10:15:35.899Z,17.79
2018-09-27T10:16:35.888Z,17.72
2018-09-27T10:17:35.872Z,17.82
2018-09-27T10:18:35.893Z,17.80
2018-09-27T10:19:35.920Z,17.83
2018-09-27T10:20:35.872Z,17.92
2018-09-27T10:21:35.883Z,17.92
2018-09-27T10:22:35.918Z,17.86
2018-09-27T10:23:35.861Z,17.85
2018-09-27T10:24:35.791Z,17.85
2018-09-27T10:25:35.791Z,17.97
2018-09-27T10:26:35.776Z,17.98
2018-09-27T10:27:35.930Z,18.04
2018-09-27T10:28:35.791Z,18.05
2018-09-27T10:29:35.744Z,18.01
2018-09-27T10:30:35.736Z,18.10
2018-09-27T10:31:35.775Z,18.19
2018-09-27T10:32:35.706Z,18.16
2018-09-27T10:33:35.698Z,18.25
2018-09-27T10:34:35.737Z,18.19
2018-09-27T10:35:35.722Z,18.35
2018-09-27T10:36:35.669Z,18.37
2018-09-27T10:37:35.656Z,18.29
2018-09-27T10:38:35.640Z,18.41
2018-09-27T10:39:35.683Z,18.47
2018-09-27T10:40:35.669Z,18.45
2018-09-27T10:41:35.613Z,18.47
2018-09-27T10:42:35.601Z,18.47
2018-09-27T10:43:35.643Z,18.55
2018-09-27T10:44:35.586Z,18.53
2018-09-27T10:45:35.568Z,18.73
2018-09-27T10:46:35.608Z,18.74
2018-09-27T10:47:35.547Z,18.70
2018-09-27T10:48:35.538Z,18.74
2018-09-27T10:49:35.521Z,18.81
2018-09-27T10:50:35.552Z,18.78
2018-09-27T10:51:35.508Z,18.95
2018-09-27T10:52:35.488Z,18.90
2018-09-27T10:53:35.480Z,18.89
2018-09-27T10:54:35.495Z,18.93
2018-09-27T10:55:35.459Z,18.99
2018-09-27T10:56:35.446Z,18.95
2018-09-27T10:57:35.480Z,19.00
2018-09-27T10:58:35.439Z,19.08
2018-09-27T10:59:35.492Z,19.11
2018-09-27T11:00:35.401Z,19.15
2018-09-27T11:01:35.388Z,19.26
2018-09-27T11:02:35.470Z,19.22
2018-09-27T11:03:35.367Z,19.15
2018-09-27T11:04:35.405Z,19.27
2018-09-27T11:05:35.367Z,19.27
2018-09-27T11:06:35.331Z,19.19
2018-09-27T11:07:35.322Z,19.31
2018-09-27T11:08:35.965Z,19.33
2018-09-27T11:09:35.324Z,19.37
2018-09-27T11:10:35.294Z,19.39
2018-09-27T11:11:35.377Z,19.39
2018-09-27T11:12:35.347Z,19.41
2018-09-27T11:13:35.257Z,19.39
2018-09-27T11:14:35.240Z,19.40
2018-09-27T11:15:35.283Z,19.41
2018-09-27T11:16:35.282Z,19.41
2018-09-27T11:17:35.237Z,19.44
2018-09-27T11:18:35.198Z,19.41
2018-09-27T11:19:35.199Z,19.39
2018-09-27T11:20:35.175Z,19.47
2018-09-27T11:21:35.175Z,19.52
2018-09-27T11:22:35.200Z,19.56
2018-09-27T11:23:35.220Z,19.52
2018-09-27T11:24:35.136Z,19.66
2018-09-27T11:25:35.152Z,19.63
2018-09-27T11:26:35.118Z,19.67
2018-09-27T11:27:35.135Z,19.69
2018-09-27T11:28:35.094Z,19.67
2018-09-27T11:29:35.081Z,19.64
2018-09-27T11:30:35.113Z,19.74
2018-09-27T11:31:35.064Z,19.64
2018-09-27T11:32:35.048Z,19.69
2018-09-27T11:33:35.038Z,19.76
2018-09-27T11:34:35.062Z,19.70
2018-09-27T11:35:35.009Z,19.74
2018-09-27T11:36:34.997Z,19.74
2018-09-27T11:37:35.029Z,19.59
2018-09-27T11:38:35.061Z,19.58
2018-09-27T11:39:35.840Z,19.74
2018-09-27T11:40:34.959Z,19.74
2018-09-27T11:41:35.034Z,19.67
2018-09-27T11:42:35.072Z,19.71
2018-09-27T11:43:35.050Z,19.71
2018-09-27T11:44:34.911Z,19.74
2018-09-27T11:45:34.897Z,19.79
2018-09-27T11:46:34.889Z,19.86
2018-09-27T11:47:34.880Z,19.88
2018-09-27T11:48:34.918Z,19.88
2018-09-27T11:49:34.993Z,19.88
2018-09-27T11:50:34.843Z,19.92
2018-09-27T11:51:34.837Z,19.99
2018-09-27T11:52:34.853Z,19.89
2018-09-27T11:53:34.819Z,20.02
2018-09-27T11:54:34.827Z,19.94
2018-09-27T11:55:34.907Z,20.00
2018-09-27T11:56:34.783Z,20.06
2018-09-27T11:57:34.807Z,20.03
2018-09-27T11:58:34.787Z,19.96
2018-09-27T11:59:34.748Z,20.04
2018-09-27T12:00:34.796Z,20.13
2018-09-27T12:01:34.788Z,20.04
2018-09-27T12:02:34.755Z,20.02
2018-09-27T12:03:34.701Z,20.11
2018-09-27T12:04:34.778Z,20.09
2018-09-27T12:05:34.918Z,20.10
2018-09-27T12:06:34.769Z,20.10
2018-09-27T12:07:34.711Z,20.04
2018-09-27T12:08:34.648Z,20.16
2018-09-27T12:09:34.640Z,20.18
2018-09-27T12:10:34.677Z,20.24
2018-09-27T12:11:34.616Z,20.26
2018-09-27T12:12:34.614Z,20.29
2018-09-27T12:13:34.599Z,20.48
2018-09-27T12:14:34.602Z,20.47
2018-09-27T12:15:34.624Z,20.59
2018-09-27T12:16:34.599Z,20.75
2018-09-27T12:17:34.593Z,20.88
2018-09-27T12:18:34.543Z,21.05
2018-09-27T12:19:34.543Z,21.29
2018-09-27T12:20:34.559Z,21.48
2018-09-27T12:21:34.502Z,21.52
2018-09-27T12:22:34.545Z,21.83
2018-09-27T12:23:34.487Z,22.11
2018-09-27T12:24:34.474Z,22.35
2018-09-27T12:25:34.513Z,22.65
2018-09-27T12:26:34.453Z,22.81
2018-09-27T12:27:34.472Z,22.88
2018-09-27T12:28:34.484Z,23.02
2018-09-27T12:29:34.422Z,23.18
2018-09-27T12:30:34.421Z,23.27
2018-09-27T12:31:34.437Z,23.34
2018-09-27T12:32:34.392Z,23.39
2018-09-27T12:33:34.374Z,23.46
2018-09-27T12:34:34.366Z,23.50
2018-09-27T12:35:34.351Z,23.59
2018-09-27T12:36:34.412Z,23.69
2018-09-27T12:37:34.331Z,23.92
2018-09-27T12:38:34.441Z,24.06
2018-09-27T12:39:34.344Z,24.20
2018-09-27T12:40:34.381Z,24.35
2018-09-27T12:41:34.384Z,24.40
2018-09-27T12:42:34.428Z,24.43
2018-09-27T12:43:34.266Z,24.60
2018-09-27T12:44:34.278Z,24.69
2018-09-27T12:45:34.317Z,24.77
2018-09-27T12:46:34.365Z,24.85
2018-09-27T12:47:34.262Z,24.95
2018-09-27T12:48:34.381Z,25.03
2018-09-27T12:49:34.209Z,25.11
2018-09-27T12:50:34.230Z,25.22
2018-09-27T12:51:34.316Z,25.16
2018-09-27T12:52:34.344Z,25.29
2018-09-27T12:53:34.166Z,25.36
2018-09-27T12:54:34.147Z,25.43
2018-09-27T12:55:34.161Z,25.54
2018-09-27T12:56:34.135Z,25.68
2018-09-27T12:57:34.120Z,25.72
2018-09-27T12:58:34.205Z,25.87
2018-09-27T12:59:34.092Z,26.02
2018-09-27T13:00:34.084Z,26.21
2018-09-27T13:01:34.148Z,26.33
2018-09-27T13:02:34.257Z,26.44
2018-09-27T13:03:34.083Z,26.44
2018-09-27T13:04:34.041Z,26.48
2018-09-27T13:05:34.039Z,26.66
2018-09-27T13:06:34.019Z,26.83
2018-09-27T13:07:34.009Z,26.96